Time;durP1;ratioP1;P1;durP2;ratioP2;P2;SDS_P1;SDS_P2;PMS_P1;PMS_P2;Temp;Humidity;BMP_temperature;BMP_pressure;BME280_temperature;BME280_humidity;BME280_pressure;Samples;Min_cycle;Max_cycle;Signal;HPM_P1;HPM_P2
2023/11/02 00:02:29;;;;;;;8.57;8.20;;;11.50;99.90;;;;;;5074273;28;20459;-80
2023/11/02 00:04:58;;;;;;;8.37;8.17;;;11.50;99.90;;;;;;5074919;28;20820;-83
2023/11/02 00:07:30;;;;;;;8.80;8.60;;;11.60;99.90;;;;;;5073558;28;20391;-81
2023/11/02 00:09:59;;;;;;;8.47;8.30;;;11.70;99.90;;;;;;5073116;28;21104;-83
2023/11/02 00:12:29;;;;;;;8.43;8.23;;;11.70;99.90;;;;;;5075911;28;21473;-82
2023/11/02 00:14:59;;;;;;;8.37;8.23;;;11.70;99.90;;;;;;5072396;28;20462;-82
2023/11/02 00:17:49;;;;;;;8.93;8.60;;;11.60;99.90;;;;;;5078030;28;20442;-82
2023/11/02 00:20:36;;;;;;;8.73;8.53;;;11.50;99.90;;;;;;5073188;28;20483;-83
2023/11/02 00:23:05;;;;;;;8.53;8.33;;;11.60;99.90;;;;;;5074372;28;20497;-84
2023/11/02 00:25:49;;;;;;;8.43;8.23;;;11.60;99.90;;;;;;5075962;28;20450;-83
2023/11/02 00:28:18;;;;;;;8.27;8.17;;;11.60;99.90;;;;;;5072166;28;20511;-82
2023/11/02 00:30:50;;;;;;;7.83;7.73;;;11.60;99.90;;;;;;5073699;28;20544;-83
2023/11/02 00:33:20;;;;;;;8.30;8.10;;;11.60;99.90;;;;;;5079143;28;20458;-84
2023/11/02 00:35:50;;;;;;;7.97;7.80;;;11.60;99.90;;;;;;5078314;28;20554;-83
2023/11/02 00:38:24;;;;;;;7.50;7.40;;;11.60;99.90;;;;;;5078236;28;20487;-82
2023/11/02 00:40:52;;;;;;;7.70;7.60;;;11.60;99.90;;;;;;5080808;28;20454;-81
2023/11/02 00:43:22;;;;;;;8.07;7.87;;;11.50;99.90;;;;;;5078909;28;20457;-82
2023/11/02 00:45:53;;;;;;;7.97;7.77;;;11.40;99.90;;;;;;5078874;28;20462;-82
2023/11/02 00:48:23;;;;;;;8.47;7.83;;;11.50;99.90;;;;;;5079868;28;20445;-82
2023/11/02 00:51:13;;;;;;;8.13;7.93;;;11.50;99.90;;;;;;5078658;28;20458;-83
2023/11/02 00:53:44;;;;;;;7.60;7.50;;;11.50;99.90;;;;;;5072231;28;20454;-84
2023/11/02 00:56:15;;;;;;;7.60;7.40;;;11.50;99.90;;;;;;5076553;28;20983;-83
2023/11/02 00:58:47;;;;;;;8.27;7.83;;;11.50;99.90;;;;;;5074905;28;20471;-83
2023/11/02 01:01:20;;;;;;;7.40;7.30;;;11.40;99.90;;;;;;5076897;28;20550;-83
2023/11/02 01:03:51;;;;;;;7.63;7.43;;;11.40;99.90;;;;;;5075567;28;20477;-82
2023/11/02 01:06:23;;;;;;;7.77;7.67;;;11.40;99.90;;;;;;5080863;28;20871;-81
2023/11/02 01:08:59;;;;;;;8.13;8.03;;;11.50;99.90;;;;;;5078894;28;20527;-81
2023/11/02 01:11:33;;;;;;;7.70;7.50;;;11.40;99.90;;;;;;5077156;28;20529;-82
2023/11/02 01:14:11;;;;;;;7.43;7.33;;;11.30;99.90;;;;;;5079216;28;20459;-82
2023/11/02 01:16:41;;;;;;;8.63;8.43;;;11.30;99.90;;;;;;5081966;28;20487;-82
2023/11/02 01:19:36;;;;;;;8.30;8.10;;;11.30;99.90;;;;;;5079753;28;20483;-82
2023/11/02 01:22:05;;;;;;;7.73;7.60;;;11.20;99.90;;;;;;5080209;28;20458;-83
2023/11/02 01:24:39;;;;;;;8.30;8.00;;;11.20;99.90;;;;;;5078372;28;20459;-82
2023/11/02 01:27:11;;;;;;;7.57;7.47;;;11.20;99.90;;;;;;5077223;28;21317;-81
2023/11/02 01:29:39;;;;;;;8.10;7.90;;;11.20;99.90;;;;;;5079637;28;20459;-81
2023/11/02 01:32:10;;;;;;;8.30;8.10;;;11.20;99.90;;;;;;5080286;28;20703;-82
2023/11/02 01:34:39;;;;;;;7.97;7.87;;;11.20;99.90;;;;;;5076417;28;20458;-81
2023/11/02 01:37:08;;;;;;;7.97;7.60;;;11.10;99.90;;;;;;5079785;28;20554;-81
2023/11/02 01:40:02;;;;;;;7.93;7.73;;;11.10;99.90;;;;;;5076810;28;20502;-82
2023/11/02 01:42:42;;;;;;;8.27;7.93;;;11.20;99.90;;;;;;5067730;28;20504;-81
2023/11/02 01:45:13;;;;;;;7.47;7.27;;;11.10;99.90;;;;;;5079885;28;20451;-80
2023/11/02 01:48:01;;;;;;;6.87;6.70;;;11.00;99.90;;;;;;5078989;28;20443;-82
2023/11/02 01:50:33;;;;;;;7.13;6.93;;;11.00;99.90;;;;;;5075015;28;20466;-82
2023/11/02 01:53:21;;;;;;;7.40;7.30;;;11.00;99.90;;;;;;5077552;28;20478;-82
2023/11/02 01:56:04;;;;;;;7.50;7.30;;;11.00;99.90;;;;;;5077776;28;20447;-83
2023/11/02 01:58:40;;;;;;;7.43;7.30;;;11.00;99.90;;;;;;5078871;28;20548;-82
2023/11/02 02:01:13;;;;;;;8.43;7.80;;;11.00;99.90;;;;;;5076756;28;20473;-82
2023/11/02 02:03:53;;;;;;;7.30;7.20;;;11.00;99.90;;;;;;5073207;28;20466;-83
2023/11/02 02:06:30;;;;;;;7.70;7.50;;;10.90;99.90;;;;;;5075819;28;20449;-81
2023/11/02 02:09:12;;;;;;;7.40;7.10;;;11.00;99.90;;;;;;5076758;28;20501;-83
2023/11/02 02:11:54;;;;;;;7.37;7.27;;;10.90;99.90;;;;;;5077085;28;20547;-81
2023/11/02 02:14:31;;;;;;;7.90;7.57;;;10.90;99.90;;;;;;5075004;28;20462;-81
2023/11/02 02:17:09;;;;;;;7.73;7.53;;;10.90;99.90;;;;;;5077312;28;20493;-82
2023/11/02 02:20:03;;;;;;;7.70;7.50;;;10.70;99.90;;;;;;5074407;28;20466;-82
2023/11/02 02:22:38;;;;;;;7.80;7.30;;;10.80;99.90;;;;;;5075997;28;20872;-82
2023/11/02 02:25:16;;;;;;;8.10;7.77;;;10.80;99.90;;;;;;5077973;28;20458;-80
2023/11/02 02:28:26;;;;;;;8.17;7.93;;;10.90;99.90;;;;;;5076137;28;20461;-82
2023/11/02 02:31:04;;;;;;;7.70;7.50;;;10.80;99.90;;;;;;5073375;28;20451;-80
2023/11/02 02:34:04;;;;;;;8.10;7.80;;;10.90;99.90;;;;;;5071642;28;20459;-80
2023/11/02 02:36:44;;;;;;;7.80;7.60;;;10.90;99.90;;;;;;5076426;28;20465;-81
2023/11/02 02:39:18;;;;;;;8.40;8.20;;;10.70;99.90;;;;;;5073992;28;20501;-79
2023/11/02 02:41:52;;;;;;;7.93;7.73;;;10.80;99.90;;;;;;5071002;28;20451;-80
2023/11/02 02:44:25;;;;;;;7.80;7.60;;;10.80;99.90;;;;;;5075109;28;20504;-81
2023/11/02 02:46:53;;;;;;;8.20;7.70;;;10.80;99.90;;;;;;5076627;28;20534;-82
2023/11/02 02:49:24;;;;;;;8.90;8.30;;;10.80;99.90;;;;;;5068933;28;20484;-81
2023/11/02 02:51:55;;;;;;;9.17;8.67;;;10.90;99.90;;;;;;5075237;28;20989;-82
2023/11/02 02:54:24;;;;;;;8.43;8.23;;;10.70;99.90;;;;;;5076419;28;20465;-82
2023/11/02 02:56:56;;;;;;;8.50;8.30;;;10.70;99.90;;;;;;5074001;28;20461;-83
2023/11/02 02:59:27;;;;;;;8.50;8.20;;;10.60;99.90;;;;;;5073160;28;20483;-80
2023/11/02 03:01:57;;;;;;;9.47;9.07;;;10.70;99.90;;;;;;5075248;28;20504;-82
2023/11/02 03:04:26;;;;;;;8.20;8.00;;;10.70;99.90;;;;;;5072140;28;20464;-80
2023/11/02 03:06:57;;;;;;;8.80;8.60;;;10.70;99.90;;;;;;5074089;28;20486;-83
2023/11/02 03:09:30;;;;;;;8.53;8.33;;;10.60;99.90;;;;;;5075913;28;20478;-82
2023/11/02 03:12:04;;;;;;;8.53;8.33;;;10.60;99.90;;;;;;5077258;28;20530;-82
2023/11/02 03:14:35;;;;;;;9.50;9.30;;;10.70;99.90;;;;;;5076933;28;20494;-81
2023/11/02 03:17:12;;;;;;;9.70;9.40;;;10.70;99.90;;;;;;5074570;28;21284;-81
2023/11/02 03:19:45;;;;;;;8.60;8.40;;;10.70;99.90;;;;;;5075938;28;20512;-81
2023/11/02 03:22:18;;;;;;;9.00;8.70;;;10.60;99.90;;;;;;5074160;28;21076;-82
2023/11/02 03:25:08;;;;;;;8.67;8.47;;;10.70;99.90;;;;;;5072998;28;20454;-80
2023/11/02 03:27:51;;;;;;;9.07;8.87;;;10.70;99.90;;;;;;5075341;28;20450;-83
2023/11/02 03:30:30;;;;;;;8.90;8.70;;;10.80;99.90;;;;;;5076895;28;20479;-81
2023/11/02 03:33:09;;;;;;;9.20;9.00;;;10.80;99.90;;;;;;5077204;28;20447;-82
2023/11/02 03:35:43;;;;;;;8.60;8.40;;;10.80;99.90;;;;;;5070836;28;20446;-80
2023/11/02 03:38:26;;;;;;;9.63;9.33;;;10.90;1.00;;;;;;5075849;28;20966;-83
2023/11/02 03:41:10;;;;;;;8.70;8.50;;;10.80;1.00;;;;;;5077248;28;21019;-82
2023/11/02 03:43:50;;;;;;;9.20;9.00;;;10.70;1.00;;;;;;5084020;28;20454;-83
2023/11/02 03:46:32;;;;;;;9.40;9.17;;;10.80;1.00;;;;;;5077889;28;20485;-80
2023/11/02 03:49:10;;;;;;;8.87;8.67;;;10.70;1.00;;;;;;5079347;28;20562;-82
2023/11/02 03:51:49;;;;;;;9.20;8.90;;;10.80;1.00;;;;;;5079883;28;20434;-82
2023/11/02 03:54:45;;;;;;;9.30;9.10;;;10.80;1.00;;;;;;5077704;28;20462;-82
2023/11/02 03:57:23;;;;;;;9.50;9.30;;;10.80;1.00;;;;;;5077356;28;21017;-81
2023/11/02 04:00:04;;;;;;;9.60;9.40;;;10.90;1.00;;;;;;5074527;28;20482;-80
2023/11/02 04:02:36;;;;;;;9.50;9.30;;;10.90;1.00;;;;;;5076112;28;20471;-82
2023/11/02 04:05:14;;;;;;;9.80;9.60;;;10.80;1.00;;;;;;5075296;28;20473;-81
2023/11/02 04:07:57;;;;;;;9.83;9.63;;;10.70;1.00;;;;;;5073011;28;20458;-82
2023/11/02 04:10:29;;;;;;;9.70;9.50;;;10.70;1.00;;;;;;5075663;28;20530;-81
2023/11/02 04:13:05;;;;;;;9.90;9.70;;;10.70;1.00;;;;;;5080460;28;20470;-80
2023/11/02 04:15:34;;;;;;;10.03;9.73;;;10.70;1.00;;;;;;5075756;28;20533;-82
2023/11/02 04:18:01;;;;;;;9.70;9.50;;;10.70;1.00;;;;;;5073925;28;20473;-81
2023/11/02 04:20:30;;;;;;;9.77;9.40;;;10.70;1.00;;;;;;5079285;28;20482;-82
2023/11/02 04:22:58;;;;;;;9.97;9.60;;;10.60;1.00;;;;;;5080454;28;20453;-83
2023/11/02 04:25:28;;;;;;;10.23;9.93;;;10.70;1.00;;;;;;5074889;28;20548;-82
2023/11/02 04:27:57;;;;;;;9.90;9.70;;;10.80;1.00;;;;;;5079646;28;20462;-81
2023/11/02 04:30:26;;;;;;;10.03;9.73;;;10.80;1.00;;;;;;5086962;28;20466;-82
2023/11/02 04:32:55;;;;;;;9.90;9.70;;;10.90;1.00;;;;;;5084150;28;20458;-81
2023/11/02 04:35:24;;;;;;;9.90;9.70;;;10.90;1.00;;;;;;5082460;28;20443;-81
2023/11/02 04:38:05;;;;;;;10.30;9.90;;;10.90;1.00;;;;;;5073866;28;20541;-80
2023/11/02 04:40:35;;;;;;;10.00;9.80;;;10.90;1.00;;;;;;5078531;28;20883;-80
2023/11/02 04:43:03;;;;;;;9.93;9.73;;;10.90;1.00;;;;;;5077562;28;20463;-80
2023/11/02 04:45:33;;;;;;;10.70;10.40;;;10.90;1.00;;;;;;5080117;28;20542;-81
2023/11/02 04:48:03;;;;;;;10.80;10.40;;;10.90;1.00;;;;;;5077193;28;21128;-80
2023/11/02 04:50:32;;;;;;;10.53;10.30;;;10.80;1.00;;;;;;5077859;28;20475;-82
2023/11/02 04:53:01;;;;;;;10.57;10.30;;;10.60;1.00;;;;;;5078590;28;21015;-80
2023/11/02 04:55:29;;;;;;;10.67;10.37;;;10.70;1.00;;;;;;5076574;28;20470;-80
2023/11/02 04:57:59;;;;;;;10.67;10.47;;;10.80;1.00;;;;;;5073932;28;20894;-81
2023/11/02 05:00:27;;;;;;;10.87;10.57;;;10.70;1.00;;;;;;5076994;28;20484;-82
2023/11/02 05:02:55;;;;;;;9.90;9.70;;;10.90;1.00;;;;;;5070698;28;20447;-81
2023/11/02 05:05:24;;;;;;;9.73;9.52;;;10.90;1.00;;;;;;5072825;28;20495;-82
2023/11/02 05:07:52;;;;;;;9.87;9.67;;;10.90;1.00;;;;;;5075517;28;20228;-81
2023/11/02 05:10:20;;;;;;;10.07;9.87;;;10.90;1.00;;;;;;5075725;28;20459;-82
2023/11/02 05:12:48;;;;;;;10.00;9.80;;;10.90;1.00;;;;;;5075569;28;20462;-83
2023/11/02 05:15:20;;;;;;;10.17;9.93;;;10.80;1.00;;;;;;5081020;28;20508;-83
2023/11/02 05:17:49;;;;;;;10.00;9.80;;;10.80;1.00;;;;;;5074721;28;20454;-82
2023/11/02 05:20:17;;;;;;;9.83;9.53;;;10.80;1.00;;;;;;5079202;28;21034;-83
2023/11/02 05:22:46;;;;;;;9.97;9.77;;;10.80;1.00;;;;;;5073611;28;20448;-83
2023/11/02 05:25:14;;;;;;;9.83;9.63;;;10.80;1.00;;;;;;5075189;28;20489;-83
2023/11/02 05:27:42;;;;;;;10.20;10.00;;;10.90;1.00;;;;;;5077364;28;20497;-80
2023/11/02 05:30:11;;;;;;;10.00;9.80;;;10.80;1.00;;;;;;5073750;28;21018;-80
2023/11/02 05:32:41;;;;;;;9.60;9.40;;;10.80;1.00;;;;;;5077709;28;20454;-80
2023/11/02 05:35:12;;;;;;;9.90;9.70;;;10.80;1.00;;;;;;5079220;28;21006;-82
2023/11/02 05:37:40;;;;;;;9.90;9.60;;;10.70;1.00;;;;;;5076625;28;20464;-81
2023/11/02 05:40:11;;;;;;;9.90;9.70;;;10.80;1.00;;;;;;5081721;28;20475;-81
2023/11/02 05:42:39;;;;;;;9.73;9.53;;;10.60;1.00;;;;;;5078774;28;20474;-83
2023/11/02 05:45:09;;;;;;;9.77;9.57;;;10.80;1.00;;;;;;5078119;28;21020;-80
2023/11/02 05:47:37;;;;;;;9.43;9.30;;;10.90;1.00;;;;;;5080869;28;21565;-81
2023/11/02 05:50:08;;;;;;;9.73;9.50;;;11.00;1.00;;;;;;5077856;28;20466;-82
2023/11/02 05:52:36;;;;;;;9.60;9.40;;;11.10;1.00;;;;;;5081347;28;20489;-83
2023/11/02 05:55:05;;;;;;;9.60;9.40;;;11.00;1.00;;;;;;5075363;28;20481;-83
2023/11/02 05:57:34;;;;;;;9.20;9.00;;;11.10;1.00;;;;;;5075323;28;20546;-82
2023/11/02 06:00:07;;;;;;;9.50;9.30;;;11.00;1.00;;;;;;5078008;28;20803;-84
2023/11/02 06:02:37;;;;;;;9.60;9.30;;;11.00;1.00;;;;;;5075279;28;20552;-84
2023/11/02 06:05:08;;;;;;;9.87;9.67;;;11.10;1.00;;;;;;5079454;28;20943;-81
2023/11/02 06:07:37;;;;;;;10.37;10.07;;;11.20;1.00;;;;;;5076205;28;20564;-83
2023/11/02 06:10:06;;;;;;;11.73;11.23;;;11.20;1.00;;;;;;5074565;28;20557;-81
2023/11/02 06:12:34;;;;;;;10.23;9.93;;;11.20;1.00;;;;;;5076776;28;20513;-82
2023/11/02 06:15:04;;;;;;;10.00;9.80;;;11.20;1.00;;;;;;5074548;28;20451;-82
2023/11/02 06:17:33;;;;;;;10.30;10.00;;;11.20;1.00;;;;;;5076232;28;20467;-84
2023/11/02 06:20:03;;;;;;;10.60;10.40;;;11.20;28.30;;;;;;5074354;28;20468;-81
2023/11/02 06:22:32;;;;;;;10.40;10.20;;;11.10;99.90;;;;;;5074354;28;20996;-83
2023/11/02 06:25:01;;;;;;;10.07;9.80;;;11.10;99.90;;;;;;5075333;28;20455;-82
2023/11/02 06:27:29;;;;;;;10.77;10.30;;;11.10;99.90;;;;;;5077058;28;20459;-80
2023/11/02 06:29:57;;;;;;;11.13;10.80;;;11.10;99.90;;;;;;5078161;28;20541;-81
2023/11/02 06:32:26;;;;;;;11.20;10.90;;;11.10;99.90;;;;;;5078284;28;20462;-82
2023/11/02 06:34:54;;;;;;;11.00;10.80;;;11.10;99.90;;;;;;5080124;28;20541;-81
2023/11/02 06:37:22;;;;;;;11.60;11.20;;;11.10;99.90;;;;;;5078703;28;20450;-82
2023/11/02 06:39:52;;;;;;;11.57;11.23;;;11.10;1.00;;;;;;5079457;28;20469;-81
2023/11/02 06:42:21;;;;;;;12.13;11.43;;;11.20;1.00;;;;;;5079859;28;20463;-82
2023/11/02 06:44:49;;;;;;;11.00;10.80;;;11.10;1.00;;;;;;5073722;28;20994;-83
2023/11/02 06:47:18;;;;;;;11.10;10.70;;;11.10;1.00;;;;;;5074055;28;20487;-83
2023/11/02 06:49:46;;;;;;;11.60;11.20;;;11.10;1.00;;;;;;5076671;28;20506;-82
2023/11/02 06:52:14;;;;;;;11.27;11.00;;;11.00;1.00;;;;;;5080573;28;20439;-82
2023/11/02 06:54:44;;;;;;;11.53;11.13;;;11.00;1.00;;;;;;5073912;28;20972;-81
2023/11/02 06:57:14;;;;;;;10.87;10.60;;;11.00;1.00;;;;;;5075677;28;20459;-83
2023/11/02 06:59:42;;;;;;;11.97;11.40;;;11.00;1.00;;;;;;5079409;28;20467;-82
2023/11/02 07:02:11;;;;;;;11.37;11.13;;;11.00;1.00;;;;;;5069912;28;20983;-81
2023/11/02 07:04:39;;;;;;;11.00;10.80;;;11.00;1.00;;;;;;5077892;28;20461;-81
2023/11/02 07:07:08;;;;;;;10.70;10.50;;;11.00;1.00;;;;;;5077996;28;20928;-82
2023/11/02 07:09:38;;;;;;;11.30;11.10;;;11.10;99.90;;;;;;5074281;28;20474;-83
2023/11/02 07:12:07;;;;;;;11.13;10.83;;;11.10;99.90;;;;;;5075743;28;20469;-83
2023/11/02 07:14:37;;;;;;;11.33;11.03;;;11.00;34.10;;;;;;5077639;28;20452;-81
2023/11/02 07:17:05;;;;;;;11.43;11.13;;;10.90;20.20;;;;;;5072920;28;20459;-81
2023/11/02 07:19:34;;;;;;;11.40;11.10;;;10.90;99.90;;;;;;5074279;28;20466;-83
2023/11/02 07:22:02;;;;;;;10.97;10.67;;;11.00;99.90;;;;;;5073171;28;20478;-82
2023/11/02 07:24:30;;;;;;;11.87;11.57;;;11.00;99.90;;;;;;5073991;28;20537;-82
2023/11/02 07:26:59;;;;;;;10.83;10.53;;;11.00;99.90;;;;;;5077899;28;20450;-82
2023/11/02 07:29:27;;;;;;;11.00;10.80;;;11.00;1.10;;;;;;5077804;28;20525;-81
2023/11/02 07:31:57;;;;;;;11.30;11.00;;;11.00;99.90;;;;;;5074558;28;20534;-82
2023/11/02 07:34:26;;;;;;;10.80;10.60;;;11.00;99.90;;;;;;5075831;28;20455;-82
2023/11/02 07:36:56;;;;;;;10.87;10.67;;;11.10;1.00;;;;;;5070175;28;20457;-82
2023/11/02 07:39:24;;;;;;;10.90;10.70;;;11.10;96.70;;;;;;5075828;28;21105;-82
2023/11/02 07:41:53;;;;;;;11.30;11.10;;;11.00;7.40;;;;;;5074319;28;20506;-81
2023/11/02 07:44:21;;;;;;;10.70;10.50;;;11.00;1.00;;;;;;5074271;28;20960;-82
2023/11/02 07:46:49;;;;;;;10.80;10.60;;;11.00;1.00;;;;;;5075936;28;20462;-83
2023/11/02 07:49:19;;;;;;;10.80;10.60;;;11.00;1.00;;;;;;5072755;28;20478;-80
2023/11/02 07:51:47;;;;;;;11.23;10.90;;;11.00;27.70;;;;;;5076338;28;20443;-81
2023/11/02 07:54:16;;;;;;;11.50;11.20;;;11.00;99.90;;;;;;5073114;28;20451;-81
2023/11/02 07:56:45;;;;;;;11.17;10.97;;;11.00;30.00;;;;;;5071085;28;20446;-83
2023/11/02 07:59:13;;;;;;;10.80;10.60;;;11.00;99.90;;;;;;5076604;28;20463;-83
2023/11/02 08:01:42;;;;;;;10.57;10.37;;;11.00;99.90;;;;;;5073905;28;20446;-81
2023/11/02 08:04:10;;;;;;;11.00;10.80;;;11.00;1.00;;;;;;5073713;28;20549;-82
2023/11/02 08:06:40;;;;;;;10.60;10.30;;;11.10;99.90;;;;;;5071442;28;21209;-83
2023/11/02 08:09:09;;;;;;;11.03;10.73;;;11.00;99.90;;;;;;5076538;28;20466;-80
2023/11/02 08:11:40;;;;;;;10.93;10.63;;;11.00;99.90;;;;;;5083662;28;20458;-81
2023/11/02 08:14:09;;;;;;;10.60;10.40;;;11.00;1.00;;;;;;5080920;28;20450;-80
2023/11/02 08:16:37;;;;;;;10.50;10.30;;;10.90;99.90;;;;;;5078158;28;21046;-81
2023/11/02 08:19:05;;;;;;;11.10;10.90;;;10.80;1.00;;;;;;5075150;28;20478;-82
2023/11/02 08:21:34;;;;;;;10.70;10.40;;;10.80;65.40;;;;;;5077925;28;20524;-82
2023/11/02 08:24:04;;;;;;;10.73;10.50;;;10.80;93.40;;;;;;5076633;28;20506;-81
2023/11/02 08:26:32;;;;;;;10.60;10.40;;;10.90;1.00;;;;;;5082937;28;20462;-81
2023/11/02 08:29:01;;;;;;;11.43;11.23;;;10.80;99.90;;;;;;5080302;28;20474;-82
2023/11/02 08:31:31;;;;;;;11.43;11.23;;;10.90;99.90;;;;;;5074403;28;20450;-83
2023/11/02 08:34:00;;;;;;;11.60;11.30;;;10.80;99.90;;;;;;5078268;28;20478;-83
2023/11/02 08:36:32;;;;;;;11.30;11.00;;;10.70;99.90;;;;;;5074897;28;20535;-82
2023/11/02 08:39:01;;;;;;;11.43;11.10;;;10.70;59.90;;;;;;5075751;28;20475;-81
2023/11/02 08:41:32;;;;;;;12.50;12.00;;;10.80;32.20;;;;;;5079747;28;20451;-83
2023/11/02 08:44:03;;;;;;;11.63;11.33;;;10.90;1.00;;;;;;5076638;28;20479;-82
2023/11/02 08:46:34;;;;;;;11.60;11.10;;;10.80;99.90;;;;;;5078953;28;20491;-82
2023/11/02 08:49:06;;;;;;;11.40;11.10;;;10.80;99.90;;;;;;5073407;28;20566;-83
2023/11/02 08:51:35;;;;;;;11.40;10.90;;;10.90;99.90;;;;;;5080715;28;20462;-82
2023/11/02 08:54:04;;;;;;;11.27;10.87;;;10.90;1.00;;;;;;5076303;28;20449;-83
2023/11/02 08:56:34;;;;;;;11.57;11.27;;;10.90;1.00;;;;;;5080772;28;20455;-83
2023/11/02 08:59:03;;;;;;;11.23;10.93;;;10.90;1.00;;;;;;5079842;28;21010;-84
2023/11/02 09:01:32;;;;;;;11.20;10.90;;;10.90;1.00;;;;;;5072225;28;21024;-84
2023/11/02 09:04:04;;;;;;;11.20;10.70;;;11.00;99.90;;;;;;5076400;28;20566;-84
2023/11/02 09:06:32;;;;;;;11.00;10.80;;;11.00;1.00;;;;;;5075333;28;20458;-84
2023/11/02 09:09:01;;;;;;;11.60;11.40;;;11.00;1.00;;;;;;5075477;28;20581;-84
2023/11/02 09:11:30;;;;;;;11.40;11.10;;;11.00;94.90;;;;;;5075577;28;20458;-85
2023/11/02 09:14:00;;;;;;;11.47;11.07;;;11.00;99.90;;;;;;5075031;28;20476;-83
2023/11/02 09:16:29;;;;;;;11.13;10.83;;;11.00;99.90;;;;;;5075623;28;21493;-84
2023/11/02 09:18:59;;;;;;;11.33;11.10;;;11.10;99.90;;;;;;5072000;28;20482;-84
2023/11/02 09:21:29;;;;;;;12.17;11.60;;;11.10;40.20;;;;;;5075612;28;20485;-84
2023/11/02 09:23:58;;;;;;;11.63;11.23;;;11.10;99.90;;;;;;5073648;28;20462;-83
2023/11/02 09:26:27;;;;;;;11.83;11.53;;;11.20;1.00;;;;;;5076525;28;20466;-82
2023/11/02 09:28:56;;;;;;;11.53;11.23;;;11.20;99.90;;;;;;5078591;28;20489;-84
2023/11/02 09:31:29;;;;;;;11.50;11.30;;;11.10;1.00;;;;;;5074572;28;20486;-84
2023/11/02 09:33:58;;;;;;;12.20;11.90;;;11.00;99.90;;;;;;5071804;28;20478;-83
2023/11/02 09:36:27;;;;;;;11.90;11.60;;;11.10;99.90;;;;;;5072689;28;20834;-84
2023/11/02 09:38:59;;;;;;;11.10;10.90;;;11.10;1.00;;;;;;5076109;28;20481;-81
2023/11/02 09:41:28;;;;;;;12.63;12.07;;;11.20;99.90;;;;;;5080700;28;20455;-83
2023/11/02 09:43:57;;;;;;;12.07;11.77;;;11.20;73.60;;;;;;5075464;28;20474;-82
2023/11/02 09:46:27;;;;;;;12.50;12.10;;;11.10;99.90;;;;;;5075310;28;20542;-84
2023/11/02 09:48:55;;;;;;;11.77;11.27;;;11.10;30.10;;;;;;5075183;28;20471;-82
2023/11/02 09:51:24;;;;;;;11.97;11.57;;;11.10;1.00;;;;;;5075357;28;20462;-84
2023/11/02 09:53:53;;;;;;;11.30;11.10;;;11.10;39.90;;;;;;5067082;28;20458;-84
2023/11/02 09:56:22;;;;;;;11.77;11.47;;;11.10;1.00;;;;;;5074352;28;20448;-84
2023/11/02 09:58:51;;;;;;;12.20;11.90;;;11.00;99.90;;;;;;5077545;28;20474;-83
2023/11/02 10:01:21;;;;;;;12.07;11.77;;;11.00;99.90;;;;;;5072882;28;20451;-83
2023/11/02 10:03:51;;;;;;;11.50;11.30;;;11.00;99.90;;;;;;5073473;28;20479;-81
2023/11/02 10:06:20;;;;;;;12.13;11.90;;;11.10;93.30;;;;;;5072893;28;20449;-83
2023/11/02 10:08:48;;;;;;;11.70;11.50;;;11.10;99.90;;;;;;5074606;28;20574;-82
2023/11/02 10:11:19;;;;;;;11.77;11.57;;;11.10;99.90;;;;;;5077967;28;20731;-83
2023/11/02 10:13:49;;;;;;;12.30;12.00;;;11.10;99.90;;;;;;5076100;28;20988;-84
2023/11/02 10:16:23;;;;;;;12.00;11.70;;;11.00;1.00;;;;;;5074627;28;20803;-83
2023/11/02 10:18:54;;;;;;;12.20;11.80;;;11.10;99.90;;;;;;5074868;28;20475;-84
2023/11/02 10:21:23;;;;;;;11.63;11.40;;;11.10;99.90;;;;;;5077205;28;20459;-83
2023/11/02 10:23:55;;;;;;;11.70;11.50;;;11.30;1.00;;;;;;5074576;28;20567;-82
2023/11/02 10:26:25;;;;;;;12.27;11.97;;;11.30;1.00;;;;;;5073551;28;20465;-83
2023/11/02 10:28:55;;;;;;;12.33;11.93;;;11.30;99.90;;;;;;5077821;28;20478;-84
2023/11/02 10:31:27;;;;;;;12.10;11.60;;;11.30;1.00;;;;;;5079037;28;20455;-83
2023/11/02 10:33:58;;;;;;;12.43;12.13;;;11.20;99.90;;;;;;5079140;28;20936;-83
2023/11/02 10:36:26;;;;;;;12.27;11.97;;;11.30;1.00;;;;;;5074664;28;20537;-83
2023/11/02 10:38:56;;;;;;;12.10;11.80;;;11.20;99.90;;;;;;5078746;28;20536;-84
2023/11/02 10:41:26;;;;;;;12.20;11.77;;;11.20;1.00;;;;;;5076549;28;20455;-84
2023/11/02 10:43:58;;;;;;;11.97;11.70;;;11.20;1.00;;;;;;5078016;28;20475;-83
2023/11/02 10:46:28;;;;;;;12.30;11.80;;;11.30;1.00;;;;;;5073715;28;20470;-84
2023/11/02 10:49:00;;;;;;;12.30;12.10;;;11.30;99.90;;;;;;5079278;28;20552;-85
2023/11/02 10:51:30;;;;;;;12.20;12.00;;;11.40;99.90;;;;;;5077476;28;20467;-84
2023/11/02 10:54:10;;;;;;;12.30;12.10;;;11.40;1.00;;;;;;5077973;28;20462;-85
2023/11/02 10:56:42;;;;;;;12.20;11.90;;;11.20;99.90;;;;;;5077042;28;20451;-83
2023/11/02 10:59:12;;;;;;;12.20;12.00;;;11.20;99.90;;;;;;5072714;28;20463;-84
2023/11/02 11:01:42;;;;;;;12.23;12.00;;;11.20;1.00;;;;;;5079316;28;20451;-84
2023/11/02 11:04:14;;;;;;;12.30;12.10;;;11.30;99.90;;;;;;5077718;28;20513;-84
2023/11/02 11:06:44;;;;;;;11.90;11.60;;;11.20;1.00;;;;;;5074892;28;20458;-83
2023/11/02 11:09:14;;;;;;;11.93;11.50;;;11.20;1.00;;;;;;5076807;28;20476;-83
2023/11/02 11:11:43;;;;;;;11.87;11.57;;;11.20;1.00;;;;;;5075477;28;20830;-82
2023/11/02 11:14:13;;;;;;;12.57;12.17;;;11.20;1.00;;;;;;5075337;28;20947;-83
2023/11/02 11:16:41;;;;;;;11.40;11.20;;;11.20;1.00;;;;;;5075291;28;20492;-82
2023/11/02 11:19:11;;;;;;;11.43;11.23;;;11.10;1.00;;;;;;5077078;28;20471;-82
2023/11/02 11:21:42;;;;;;;11.33;11.10;;;11.20;1.00;;;;;;5078049;28;20542;-83
2023/11/02 11:24:16;;;;;;;11.63;11.33;;;11.10;99.90;;;;;;5075823;28;20483;-83
2023/11/02 11:26:47;;;;;;;11.10;10.90;;;11.20;99.90;;;;;;5074453;28;20545;-83
2023/11/02 11:29:35;;;;;;;12.93;12.53;;;11.20;99.90;;;;;;5077604;28;20486;-83
2023/11/02 11:32:04;;;;;;;12.30;12.00;;;11.10;99.90;;;;;;5076525;28;20450;-83
2023/11/02 11:35:11;;;;;;;12.40;12.00;;;11.10;30.40;;;;;;5078341;28;20497;-83
2023/11/02 11:37:44;;;;;;;12.07;11.60;;;11.10;1.00;;;;;;5074079;28;20548;-83
2023/11/02 11:40:35;;;;;;;11.70;11.50;;;11.10;1.00;;;;;;5076146;28;21030;-82
2023/11/02 11:43:12;;;;;;;11.90;11.60;;;11.20;1.00;;;;;;5077114;28;20465;-83
2023/11/02 11:45:51;;;;;;;12.17;11.87;;;11.20;99.90;;;;;;5074322;28;20481;-82
2023/11/02 11:48:37;;;;;;;12.30;12.00;;;11.20;1.00;;;;;;5074198;28;20454;-82
2023/11/02 11:51:38;;;;;;;12.40;12.10;;;11.20;99.90;;;;;;5078121;28;20466;-83
2023/11/02 11:54:10;;;;;;;11.50;11.30;;;11.30;1.00;;;;;;5080848;28;20540;-83
2023/11/02 11:56:39;;;;;;;11.90;11.70;;;11.20;99.90;;;;;;5075005;28;20548;-82
2023/11/02 11:59:08;;;;;;;12.20;11.90;;;11.20;1.00;;;;;;5079312;28;20855;-83
2023/11/02 12:01:37;;;;;;;11.90;11.60;;;11.20;99.90;;;;;;5079493;28;20516;-83
2023/11/02 12:04:07;;;;;;;11.80;11.60;;;11.20;97.60;;;;;;5076131;28;20462;-84
2023/11/02 12:06:41;;;;;;;12.17;11.87;;;11.20;1.00;;;;;;5075943;28;20447;-82
2023/11/02 12:09:13;;;;;;;11.90;11.70;;;11.10;99.90;;;;;;5078758;28;21000;-82
2023/11/02 12:11:42;;;;;;;12.70;12.40;;;11.20;63.40;;;;;;5068687;28;20448;-84
2023/11/02 12:14:18;;;;;;;11.80;11.60;;;11.10;2.10;;;;;;5076736;28;20462;-84
2023/11/02 12:16:49;;;;;;;12.10;11.70;;;11.20;13.70;;;;;;5079805;28;20521;-84
2023/11/02 12:19:18;;;;;;;12.37;12.00;;;11.10;99.90;;;;;;5079417;28;20561;-84
2023/11/02 12:21:56;;;;;;;12.20;11.90;;;11.20;99.90;;;;;;5070299;28;20505;-83
2023/11/02 12:24:25;;;;;;;12.90;12.50;;;11.20;1.00;;;;;;5075557;28;20887;-82
2023/11/02 12:27:10;;;;;;;12.90;12.60;;;11.20;57.20;;;;;;5077377;28;20446;-83
2023/11/02 12:29:39;;;;;;;13.13;12.83;;;11.20;1.00;;;;;;5078845;28;20483;-84
2023/11/02 12:32:09;;;;;;;12.10;11.90;;;11.20;99.90;;;;;;5080393;28;20462;-84
2023/11/02 12:34:38;;;;;;;12.20;12.00;;;11.20;99.90;;;;;;5081514;28;20446;-83
2023/11/02 12:37:07;;;;;;;12.30;11.90;;;11.20;99.90;;;;;;5079019;28;20447;-83
2023/11/02 12:39:37;;;;;;;12.30;11.97;;;11.10;99.90;;;;;;5080894;28;20469;-83
2023/11/02 12:42:09;;;;;;;12.40;11.97;;;11.10;1.00;;;;;;5081071;28;20447;-84
2023/11/02 12:44:45;;;;;;;12.50;12.20;;;11.00;97.70;;;;;;5075522;28;20481;-84
2023/11/02 12:47:13;;;;;;;11.90;11.70;;;11.00;1.00;;;;;;5075715;28;20481;-82
2023/11/02 12:49:42;;;;;;;12.07;11.87;;;11.00;99.90;;;;;;5078664;28;20474;-83
2023/11/02 12:52:11;;;;;;;13.03;12.73;;;11.00;67.20;;;;;;5080594;28;20528;-84
2023/11/02 12:54:56;;;;;;;12.60;12.10;;;11.00;1.00;;;;;;5078401;28;20491;-83
2023/11/02 12:57:25;;;;;;;12.43;12.10;;;11.10;34.30;;;;;;5078144;28;20454;-86
2023/11/02 12:59:53;;;;;;;12.20;12.00;;;11.10;99.90;;;;;;5078803;28;20478;-85
2023/11/02 13:02:25;;;;;;;12.30;12.10;;;11.10;99.90;;;;;;5085025;28;20450;-84
2023/11/02 13:04:55;;;;;;;12.30;12.00;;;11.10;23.70;;;;;;5081990;28;20477;-83
2023/11/02 13:07:25;;;;;;;12.50;12.00;;;11.10;1.00;;;;;;5080818;28;20472;-84